sensor_id;sensor_type;location;lat;lon;timestamp;P1;durP1;ratioP1;P2;durP2;ratioP2
59607;SDS011;45426;44.726;10.390;2023-12-22T00:02:08;33.17;;;16.75;;
59607;SDS011;45426;44.726;10.390;2023-12-22T00:04:34;29.92;;;16.45;;
59607;SDS011;45426;44.726;10.390;2023-12-22T00:06:59;31.42;;;16.27;;
59607;SDS011;45426;44.726;10.390;2023-12-22T00:09:25;31.85;;;16.05;;
59607;SDS011;45426;44.726;10.390;2023-12-22T00:11:50;30.63;;;16.75;;
59607;SDS011;45426;44.726;10.390;2023-12-22T00:14:15;31.77;;;16.17;;
59607;SDS011;45426;44.726;10.390;2023-12-22T00:16:41;29.15;;;15.80;;
59607;SDS011;45426;44.726;10.390;2023-12-22T00:19:06;34.65;;;17.13;;
59607;SDS011;45426;44.726;10.390;2023-12-22T00:21:32;34.28;;;16.50;;
59607;SDS011;45426;44.726;10.390;2023-12-22T00:23:57;32.28;;;17.15;;
59607;SDS011;45426;44.726;10.390;2023-12-22T00:26:23;32.88;;;17.05;;
59607;SDS011;45426;44.726;10.390;2023-12-22T00:28:49;32.85;;;16.95;;
59607;SDS011;45426;44.726;10.390;2023-12-22T00:31:14;35.13;;;16.17;;
59607;SDS011;45426;44.726;10.390;2023-12-22T00:33:39;34.10;;;17.05;;
59607;SDS011;45426;44.726;10.390;2023-12-22T00:36:05;32.58;;;16.88;;
59607;SDS011;45426;44.726;10.390;2023-12-22T00:38:30;33.40;;;16.98;;
59607;SDS011;45426;44.726;10.390;2023-12-22T00:40:56;37.00;;;16.88;;
59607;SDS011;45426;44.726;10.390;2023-12-22T00:43:22;34.05;;;17.27;;
59607;SDS011;45426;44.726;10.390;2023-12-22T00:45:47;31.15;;;15.73;;
59607;SDS011;45426;44.726;10.390;2023-12-22T00:48:12;32.00;;;16.52;;
59607;SDS011;45426;44.726;10.390;2023-12-22T00:50:38;32.05;;;16.38;;
59607;SDS011;45426;44.726;10.390;2023-12-22T00:53:03;33.72;;;16.42;;
59607;SDS011;45426;44.726;10.390;2023-12-22T00:55:29;30.23;;;15.23;;
59607;SDS011;45426;44.726;10.390;2023-12-22T00:57:54;30.73;;;16.02;;
59607;SDS011;45426;44.726;10.390;2023-12-22T01:00:19;29.73;;;15.45;;
59607;SDS011;45426;44.726;10.390;2023-12-22T01:02:45;29.42;;;14.70;;
59607;SDS011;45426;44.726;10.390;2023-12-22T01:05:10;27.25;;;14.48;;
59607;SDS011;45426;44.726;10.390;2023-12-22T01:07:36;28.88;;;14.93;;
59607;SDS011;45426;44.726;10.390;2023-12-22T01:10:01;26.10;;;12.70;;
59607;SDS011;45426;44.726;10.390;2023-12-22T01:12:28;24.60;;;12.68;;
59607;SDS011;45426;44.726;10.390;2023-12-22T01:14:55;25.52;;;12.60;;
59607;SDS011;45426;44.726;10.390;2023-12-22T01:17:20;23.92;;;12.25;;
59607;SDS011;45426;44.726;10.390;2023-12-22T01:19:46;25.45;;;11.95;;
59607;SDS011;45426;44.726;10.390;2023-12-22T01:22:11;20.98;;;10.15;;
59607;SDS011;45426;44.726;10.390;2023-12-22T01:24:37;20.25;;;9.88;;
59607;SDS011;45426;44.726;10.390;2023-12-22T01:27:05;19.05;;;9.05;;
59607;SDS011;45426;44.726;10.390;2023-12-22T01:29:31;18.05;;;6.85;;
59607;SDS011;45426;44.726;10.390;2023-12-22T01:31:57;13.18;;;5.90;;
59607;SDS011;45426;44.726;10.390;2023-12-22T01:34:22;11.85;;;4.72;;
59607;SDS011;45426;44.726;10.390;2023-12-22T01:36:48;8.70;;;2.80;;
59607;SDS011;45426;44.726;10.390;2023-12-22T01:39:14;5.75;;;2.03;;
59607;SDS011;45426;44.726;10.390;2023-12-22T01:41:40;6.72;;;1.75;;
59607;SDS011;45426;44.726;10.390;2023-12-22T01:44:05;2.88;;;1.45;;
59607;SDS011;45426;44.726;10.390;2023-12-22T01:46:31;2.45;;;1.20;;
59607;SDS011;45426;44.726;10.390;2023-12-22T01:48:57;3.50;;;1.33;;
59607;SDS011;45426;44.726;10.390;2023-12-22T01:51:26;2.38;;;1.08;;
59607;SDS011;45426;44.726;10.390;2023-12-22T01:53:52;3.63;;;1.20;;
59607;SDS011;45426;44.726;10.390;2023-12-22T01:56:17;4.28;;;1.27;;
59607;SDS011;45426;44.726;10.390;2023-12-22T01:58:43;1.55;;;0.98;;
59607;SDS011;45426;44.726;10.390;2023-12-22T02:01:09;3.05;;;1.20;;
59607;SDS011;45426;44.726;10.390;2023-12-22T02:03:35;3.50;;;1.10;;
59607;SDS011;45426;44.726;10.390;2023-12-22T02:06:02;2.13;;;1.02;;
59607;SDS011;45426;44.726;10.390;2023-12-22T02:08:28;0.90;;;0.77;;
59607;SDS011;45426;44.726;10.390;2023-12-22T02:10:57;3.83;;;1.25;;
59607;SDS011;45426;44.726;10.390;2023-12-22T02:13:22;2.20;;;1.02;;
59607;SDS011;45426;44.726;10.390;2023-12-22T02:15:49;1.67;;;1.00;;
59607;SDS011;45426;44.726;10.390;2023-12-22T02:18:21;5.40;;;1.75;;
59607;SDS011;45426;44.726;10.390;2023-12-22T02:20:52;3.03;;;0.90;;
59607;SDS011;45426;44.726;10.390;2023-12-22T02:23:17;1.30;;;1.00;;
59607;SDS011;45426;44.726;10.390;2023-12-22T02:25:43;2.58;;;1.20;;
59607;SDS011;45426;44.726;10.390;2023-12-22T02:28:09;1.10;;;0.82;;
59607;SDS011;45426;44.726;10.390;2023-12-22T02:33:29;1.90;;;1.00;;
59607;SDS011;45426;44.726;10.390;2023-12-22T02:36:03;1.55;;;0.93;;
59607;SDS011;45426;44.726;10.390;2023-12-22T02:38:31;4.13;;;0.90;;
59607;SDS011;45426;44.726;10.390;2023-12-22T02:40:57;2.05;;;1.00;;
59607;SDS011;45426;44.726;10.390;2023-12-22T02:43:23;3.97;;;1.08;;
59607;SDS011;45426;44.726;10.390;2023-12-22T02:45:52;1.35;;;0.88;;
59607;SDS011;45426;44.726;10.390;2023-12-22T02:48:17;3.10;;;1.10;;
59607;SDS011;45426;44.726;10.390;2023-12-22T02:50:43;2.15;;;0.90;;
59607;SDS011;45426;44.726;10.390;2023-12-22T02:53:08;1.48;;;0.75;;
59607;SDS011;45426;44.726;10.390;2023-12-22T02:55:34;1.98;;;1.15;;
59607;SDS011;45426;44.726;10.390;2023-12-22T02:57:59;1.98;;;1.05;;
59607;SDS011;45426;44.726;10.390;2023-12-22T03:00:25;3.92;;;0.90;;
59607;SDS011;45426;44.726;10.390;2023-12-22T03:02:50;3.13;;;0.90;;
59607;SDS011;45426;44.726;10.390;2023-12-22T03:05:15;2.65;;;1.00;;
59607;SDS011;45426;44.726;10.390;2023-12-22T03:07:41;2.28;;;0.80;;
59607;SDS011;45426;44.726;10.390;2023-12-22T03:10:06;1.98;;;0.82;;
59607;SDS011;45426;44.726;10.390;2023-12-22T03:12:32;2.78;;;1.10;;
59607;SDS011;45426;44.726;10.390;2023-12-22T03:14:57;2.10;;;0.95;;
59607;SDS011;45426;44.726;10.390;2023-12-22T03:17:23;2.67;;;1.00;;
59607;SDS011;45426;44.726;10.390;2023-12-22T03:19:48;5.47;;;0.98;;
59607;SDS011;45426;44.726;10.390;2023-12-22T03:22:13;2.95;;;1.10;;
59607;SDS011;45426;44.726;10.390;2023-12-22T03:24:39;1.42;;;1.17;;
59607;SDS011;45426;44.726;10.390;2023-12-22T03:27:04;4.32;;;1.25;;
59607;SDS011;45426;44.726;10.390;2023-12-22T03:29:30;2.47;;;0.80;;
59607;SDS011;45426;44.726;10.390;2023-12-22T03:31:55;1.25;;;0.95;;
59607;SDS011;45426;44.726;10.390;2023-12-22T03:34:20;2.67;;;0.93;;
59607;SDS011;45426;44.726;10.390;2023-12-22T03:36:46;3.15;;;0.88;;
59607;SDS011;45426;44.726;10.390;2023-12-22T03:39:14;1.88;;;0.90;;
59607;SDS011;45426;44.726;10.390;2023-12-22T03:41:42;1.55;;;0.90;;
59607;SDS011;45426;44.726;10.390;2023-12-22T03:44:07;1.23;;;0.73;;
59607;SDS011;45426;44.726;10.390;2023-12-22T03:46:33;1.00;;;0.82;;
59607;SDS011;45426;44.726;10.390;2023-12-22T03:48:58;1.38;;;0.93;;
59607;SDS011;45426;44.726;10.390;2023-12-22T03:51:23;1.13;;;0.90;;
59607;SDS011;45426;44.726;10.390;2023-12-22T03:53:49;2.13;;;1.20;;
59607;SDS011;45426;44.726;10.390;2023-12-22T03:56:14;2.13;;;0.90;;
59607;SDS011;45426;44.726;10.390;2023-12-22T03:58:40;1.83;;;1.08;;
59607;SDS011;45426;44.726;10.390;2023-12-22T04:01:05;1.38;;;0.93;;
59607;SDS011;45426;44.726;10.390;2023-12-22T04:03:33;2.20;;;0.77;;
59607;SDS011;45426;44.726;10.390;2023-12-22T04:06:01;1.55;;;1.02;;
59607;SDS011;45426;44.726;10.390;2023-12-22T04:08:27;6.60;;;3.10;;
59607;SDS011;45426;44.726;10.390;2023-12-22T04:10:53;9.18;;;3.55;;
59607;SDS011;45426;44.726;10.390;2023-12-22T04:13:18;3.20;;;1.33;;
59607;SDS011;45426;44.726;10.390;2023-12-22T04:15:43;1.63;;;1.05;;
59607;SDS011;45426;44.726;10.390;2023-12-22T04:18:09;2.92;;;1.00;;
59607;SDS011;45426;44.726;10.390;2023-12-22T04:20:34;1.15;;;0.85;;
59607;SDS011;45426;44.726;10.390;2023-12-22T04:23:00;2.50;;;1.20;;
59607;SDS011;45426;44.726;10.390;2023-12-22T04:25:25;4.65;;;1.15;;
59607;SDS011;45426;44.726;10.390;2023-12-22T04:27:51;2.10;;;0.88;;
59607;SDS011;45426;44.726;10.390;2023-12-22T04:30:17;3.35;;;1.13;;
59607;SDS011;45426;44.726;10.390;2023-12-22T04:32:42;2.83;;;1.13;;
59607;SDS011;45426;44.726;10.390;2023-12-22T04:35:08;2.55;;;1.17;;
59607;SDS011;45426;44.726;10.390;2023-12-22T04:37:33;2.28;;;1.10;;
59607;SDS011;45426;44.726;10.390;2023-12-22T04:39:59;1.58;;;0.85;;
59607;SDS011;45426;44.726;10.390;2023-12-22T04:42:24;3.40;;;1.10;;
59607;SDS011;45426;44.726;10.390;2023-12-22T04:44:53;1.35;;;0.90;;
59607;SDS011;45426;44.726;10.390;2023-12-22T04:47:18;3.25;;;1.27;;
59607;SDS011;45426;44.726;10.390;2023-12-22T04:49:44;1.75;;;1.00;;
59607;SDS011;45426;44.726;10.390;2023-12-22T04:52:10;1.80;;;1.20;;
59607;SDS011;45426;44.726;10.390;2023-12-22T04:54:36;3.55;;;1.40;;
59607;SDS011;45426;44.726;10.390;2023-12-22T04:57:01;2.22;;;1.13;;
59607;SDS011;45426;44.726;10.390;2023-12-22T04:59:27;2.17;;;1.27;;
59607;SDS011;45426;44.726;10.390;2023-12-22T05:01:52;1.73;;;1.10;;
59607;SDS011;45426;44.726;10.390;2023-12-22T05:04:18;1.48;;;1.00;;
59607;SDS011;45426;44.726;10.390;2023-12-22T05:06:43;1.40;;;1.20;;
59607;SDS011;45426;44.726;10.390;2023-12-22T05:09:10;2.00;;;1.00;;
59607;SDS011;45426;44.726;10.390;2023-12-22T05:11:36;2.85;;;1.20;;
59607;SDS011;45426;44.726;10.390;2023-12-22T05:14:01;3.47;;;1.25;;
59607;SDS011;45426;44.726;10.390;2023-12-22T05:16:27;2.22;;;1.13;;
59607;SDS011;45426;44.726;10.390;2023-12-22T05:18:54;2.05;;;1.10;;
59607;SDS011;45426;44.726;10.390;2023-12-22T05:21:19;1.55;;;0.85;;
59607;SDS011;45426;44.726;10.390;2023-12-22T05:23:46;2.58;;;1.10;;
59607;SDS011;45426;44.726;10.390;2023-12-22T05:26:15;2.08;;;1.13;;
59607;SDS011;45426;44.726;10.390;2023-12-22T05:28:44;3.47;;;1.10;;
59607;SDS011;45426;44.726;10.390;2023-12-22T05:31:10;2.22;;;1.50;;
59607;SDS011;45426;44.726;10.390;2023-12-22T05:33:35;2.53;;;1.20;;
59607;SDS011;45426;44.726;10.390;2023-12-22T05:36:01;0.90;;;0.90;;
59607;SDS011;45426;44.726;10.390;2023-12-22T05:38:26;3.55;;;1.25;;
59607;SDS011;45426;44.726;10.390;2023-12-22T05:40:51;3.13;;;1.20;;
59607;SDS011;45426;44.726;10.390;2023-12-22T05:43:17;3.17;;;0.90;;
59607;SDS011;45426;44.726;10.390;2023-12-22T05:45:42;3.67;;;1.23;;
59607;SDS011;45426;44.726;10.390;2023-12-22T05:48:08;2.08;;;1.23;;
59607;SDS011;45426;44.726;10.390;2023-12-22T05:50:33;4.13;;;0.90;;
59607;SDS011;45426;44.726;10.390;2023-12-22T05:52:59;2.55;;;1.20;;
59607;SDS011;45426;44.726;10.390;2023-12-22T05:55:24;3.15;;;1.17;;
59607;SDS011;45426;44.726;10.390;2023-12-22T05:57:49;5.13;;;1.40;;
59607;SDS011;45426;44.726;10.390;2023-12-22T06:00:15;2.85;;;1.15;;
59607;SDS011;45426;44.726;10.390;2023-12-22T06:02:40;2.60;;;1.42;;
59607;SDS011;45426;44.726;10.390;2023-12-22T06:05:06;1.75;;;1.00;;
59607;SDS011;45426;44.726;10.390;2023-12-22T06:07:32;4.15;;;1.40;;
59607;SDS011;45426;44.726;10.390;2023-12-22T06:09:58;2.50;;;1.10;;
59607;SDS011;45426;44.726;10.390;2023-12-22T06:12:23;2.38;;;1.30;;
59607;SDS011;45426;44.726;10.390;2023-12-22T06:14:49;2.97;;;1.35;;
59607;SDS011;45426;44.726;10.390;2023-12-22T06:17:14;2.90;;;1.25;;
59607;SDS011;45426;44.726;10.390;2023-12-22T06:19:39;1.58;;;1.20;;
59607;SDS011;45426;44.726;10.390;2023-12-22T06:22:05;1.77;;;1.13;;
59607;SDS011;45426;44.726;10.390;2023-12-22T06:24:30;4.30;;;1.40;;
59607;SDS011;45426;44.726;10.390;2023-12-22T06:26:56;2.38;;;1.05;;
59607;SDS011;45426;44.726;10.390;2023-12-22T06:29:22;1.58;;;1.10;;
59607;SDS011;45426;44.726;10.390;2023-12-22T06:31:48;2.85;;;1.15;;
59607;SDS011;45426;44.726;10.390;2023-12-22T06:34:19;2.47;;;1.23;;
59607;SDS011;45426;44.726;10.390;2023-12-22T06:36:44;2.95;;;1.20;;
59607;SDS011;45426;44.726;10.390;2023-12-22T06:39:10;2.80;;;1.10;;
59607;SDS011;45426;44.726;10.390;2023-12-22T06:41:35;3.05;;;1.23;;
59607;SDS011;45426;44.726;10.390;2023-12-22T06:44:00;1.77;;;0.98;;
59607;SDS011;45426;44.726;10.390;2023-12-22T06:46:26;3.47;;;1.20;;
59607;SDS011;45426;44.726;10.390;2023-12-22T06:48:52;4.13;;;1.30;;
59607;SDS011;45426;44.726;10.390;2023-12-22T06:53:45;3.10;;;1.00;;
59607;SDS011;45426;44.726;10.390;2023-12-22T06:56:14;4.00;;;1.20;;
59607;SDS011;45426;44.726;10.390;2023-12-22T06:58:43;2.75;;;1.00;;
59607;SDS011;45426;44.726;10.390;2023-12-22T07:01:11;2.40;;;1.73;;
59607;SDS011;45426;44.726;10.390;2023-12-22T07:03:37;3.95;;;1.00;;
59607;SDS011;45426;44.726;10.390;2023-12-22T07:06:03;1.77;;;0.90;;
59607;SDS011;45426;44.726;10.390;2023-12-22T07:08:29;2.58;;;1.02;;
59607;SDS011;45426;44.726;10.390;2023-12-22T07:10:54;1.08;;;0.85;;
59607;SDS011;45426;44.726;10.390;2023-12-22T07:13:20;2.17;;;1.10;;
59607;SDS011;45426;44.726;10.390;2023-12-22T07:15:45;1.90;;;1.20;;
59607;SDS011;45426;44.726;10.390;2023-12-22T07:18:10;3.65;;;1.42;;
59607;SDS011;45426;44.726;10.390;2023-12-22T07:20:36;3.13;;;0.93;;
59607;SDS011;45426;44.726;10.390;2023-12-22T07:23:01;3.72;;;2.15;;
59607;SDS011;45426;44.726;10.390;2023-12-22T07:25:26;2.67;;;1.35;;
59607;SDS011;45426;44.726;10.390;2023-12-22T07:27:52;3.97;;;1.58;;
59607;SDS011;45426;44.726;10.390;2023-12-22T07:30:17;2.30;;;1.70;;
59607;SDS011;45426;44.726;10.390;2023-12-22T07:32:43;2.25;;;1.40;;
59607;SDS011;45426;44.726;10.390;2023-12-22T07:35:12;2.05;;;1.88;;
59607;SDS011;45426;44.726;10.390;2023-12-22T07:37:37;2.10;;;1.60;;
59607;SDS011;45426;44.726;10.390;2023-12-22T07:40:03;2.15;;;1.20;;
59607;SDS011;45426;44.726;10.390;2023-12-22T07:42:29;4.55;;;2.40;;
59607;SDS011;45426;44.726;10.390;2023-12-22T07:44:54;4.38;;;1.58;;
59607;SDS011;45426;44.726;10.390;2023-12-22T07:47:20;1.15;;;1.00;;
59607;SDS011;45426;44.726;10.390;2023-12-22T07:49:45;1.77;;;0.80;;
59607;SDS011;45426;44.726;10.390;2023-12-22T07:52:10;1.20;;;0.90;;
59607;SDS011;45426;44.726;10.390;2023-12-22T07:54:36;3.03;;;1.15;;
59607;SDS011;45426;44.726;10.390;2023-12-22T07:57:01;0.93;;;0.82;;
59607;SDS011;45426;44.726;10.390;2023-12-22T07:59:27;1.23;;;0.93;;
59607;SDS011;45426;44.726;10.390;2023-12-22T08:01:52;2.05;;;1.10;;
59607;SDS011;45426;44.726;10.390;2023-12-22T08:04:18;3.03;;;0.73;;
59607;SDS011;45426;44.726;10.390;2023-12-22T08:06:43;2.30;;;0.80;;
59607;SDS011;45426;44.726;10.390;2023-12-22T08:09:09;2.30;;;0.82;;
59607;SDS011;45426;44.726;10.390;2023-12-22T08:11:34;2.35;;;0.80;;
59607;SDS011;45426;44.726;10.390;2023-12-22T08:13:59;1.35;;;0.77;;
59607;SDS011;45426;44.726;10.390;2023-12-22T08:16:25;1.90;;;0.65;;
59607;SDS011;45426;44.726;10.390;2023-12-22T08:18:50;0.60;;;0.60;;
59607;SDS011;45426;44.726;10.390;2023-12-22T08:21:16;1.00;;;0.90;;
59607;SDS011;45426;44.726;10.390;2023-12-22T08:23:41;1.45;;;0.80;;
59607;SDS011;45426;44.726;10.390;2023-12-22T08:26:07;1.85;;;0.70;;
59607;SDS011;45426;44.726;10.390;2023-12-22T08:28:32;3.33;;;0.80;;
59607;SDS011;45426;44.726;10.390;2023-12-22T08:30:58;3.03;;;0.93;;
59607;SDS011;45426;44.726;10.390;2023-12-22T08:33:23;3.90;;;1.00;;
59607;SDS011;45426;44.726;10.390;2023-12-22T08:35:48;2.33;;;0.80;;
59607;SDS011;45426;44.726;10.390;2023-12-22T08:38:14;2.10;;;0.82;;
59607;SDS011;45426;44.726;10.390;2023-12-22T08:40:40;4.53;;;0.70;;
59607;SDS011;45426;44.726;10.390;2023-12-22T08:43:05;1.23;;;0.68;;
59607;SDS011;45426;44.726;10.390;2023-12-22T08:45:31;1.73;;;1.10;;
59607;SDS011;45426;44.726;10.390;2023-12-22T08:47:57;2.90;;;0.60;;
59607;SDS011;45426;44.726;10.390;2023-12-22T08:50:22;2.33;;;0.90;;
59607;SDS011;45426;44.726;10.390;2023-12-22T08:52:48;6.05;;;1.30;;
59607;SDS011;45426;44.726;10.390;2023-12-22T08:55:13;1.35;;;0.68;;
59607;SDS011;45426;44.726;10.390;2023-12-22T08:57:39;1.33;;;1.00;;
59607;SDS011;45426;44.726;10.390;2023-12-22T09:00:05;1.55;;;0.65;;
59607;SDS011;45426;44.726;10.390;2023-12-22T09:02:31;1.33;;;0.82;;
59607;SDS011;45426;44.726;10.390;2023-12-22T09:04:56;1.45;;;0.70;;
59607;SDS011;45426;44.726;10.390;2023-12-22T09:07:21;0.45;;;0.40;;
59607;SDS011;45426;44.726;10.390;2023-12-22T09:09:48;1.33;;;0.70;;
59607;SDS011;45426;44.726;10.390;2023-12-22T09:12:13;2.17;;;0.50;;
59607;SDS011;45426;44.726;10.390;2023-12-22T09:14:38;5.20;;;0.65;;
59607;SDS011;45426;44.726;10.390;2023-12-22T09:17:04;2.28;;;0.60;;
59607;SDS011;45426;44.726;10.390;2023-12-22T09:19:31;2.97;;;0.68;;
59607;SDS011;45426;44.726;10.390;2023-12-22T09:21:58;0.55;;;0.50;;
59607;SDS011;45426;44.726;10.390;2023-12-22T09:24:24;5.95;;;0.60;;
59607;SDS011;45426;44.726;10.390;2023-12-22T09:26:49;3.40;;;0.70;;
59607;SDS011;45426;44.726;10.390;2023-12-22T09:29:16;0.63;;;0.60;;
59607;SDS011;45426;44.726;10.390;2023-12-22T09:31:42;2.33;;;0.77;;
59607;SDS011;45426;44.726;10.390;2023-12-22T09:34:07;0.90;;;0.60;;
59607;SDS011;45426;44.726;10.390;2023-12-22T09:36:33;1.48;;;0.77;;
59607;SDS011;45426;44.726;10.390;2023-12-22T09:38:58;4.70;;;1.40;;
59607;SDS011;45426;44.726;10.390;2023-12-22T09:41:24;2.25;;;0.55;;
59607;SDS011;45426;44.726;10.390;2023-12-22T09:43:49;3.03;;;0.57;;
59607;SDS011;45426;44.726;10.390;2023-12-22T09:46:16;3.53;;;0.60;;
59607;SDS011;45426;44.726;10.390;2023-12-22T09:48:43;2.17;;;0.43;;
59607;SDS011;45426;44.726;10.390;2023-12-22T09:51:10;0.35;;;0.35;;
59607;SDS011;45426;44.726;10.390;2023-12-22T09:53:39;3.63;;;0.73;;
59607;SDS011;45426;44.726;10.390;2023-12-22T09:56:05;5.82;;;1.05;;
59607;SDS011;45426;44.726;10.390;2023-12-22T09:58:32;2.05;;;0.77;;
59607;SDS011;45426;44.726;10.390;2023-12-22T10:01:00;0.50;;;0.50;;
59607;SDS011;45426;44.726;10.390;2023-12-22T10:03:30;3.10;;;0.93;;
59607;SDS011;45426;44.726;10.390;2023-12-22T10:05:58;1.88;;;0.77;;
59607;SDS011;45426;44.726;10.390;2023-12-22T10:08:24;1.25;;;0.68;;
59607;SDS011;45426;44.726;10.390;2023-12-22T10:10:51;0.77;;;0.60;;
59607;SDS011;45426;44.726;10.390;2023-12-22T10:13:17;1.75;;;0.80;;
59607;SDS011;45426;44.726;10.390;2023-12-22T10:15:43;0.88;;;0.50;;
59607;SDS011;45426;44.726;10.390;2023-12-22T10:18:10;2.22;;;0.88;;
59607;SDS011;45426;44.726;10.390;2023-12-22T10:20:36;3.10;;;0.60;;
59607;SDS011;45426;44.726;10.390;2023-12-22T10:23:01;1.10;;;0.50;;
59607;SDS011;45426;44.726;10.390;2023-12-22T10:25:27;2.30;;;0.63;;
59607;SDS011;45426;44.726;10.390;2023-12-22T10:27:54;4.63;;;0.70;;
59607;SDS011;45426;44.726;10.390;2023-12-22T10:30:20;2.00;;;0.43;;
59607;SDS011;45426;44.726;10.390;2023-12-22T10:32:47;2.33;;;0.63;;
59607;SDS011;45426;44.726;10.390;2023-12-22T10:35:12;3.55;;;0.60;;
59607;SDS011;45426;44.726;10.390;2023-12-22T10:37:38;0.75;;;0.35;;
59607;SDS011;45426;44.726;10.390;2023-12-22T10:40:04;3.20;;;0.52;;
59607;SDS011;45426;44.726;10.390;2023-12-22T10:42:31;1.50;;;0.50;;
59607;SDS011;45426;44.726;10.390;2023-12-22T10:44:57;2.25;;;0.52;;
59607;SDS011;45426;44.726;10.390;2023-12-22T10:47:22;3.20;;;0.52;;
59607;SDS011;45426;44.726;10.390;2023-12-22T10:49:48;5.28;;;1.10;;
59607;SDS011;45426;44.726;10.390;2023-12-22T10:52:16;3.00;;;1.02;;
59607;SDS011;45426;44.726;10.390;2023-12-22T10:54:43;2.08;;;0.52;;
59607;SDS011;45426;44.726;10.390;2023-12-22T10:57:09;0.90;;;0.60;;
59607;SDS011;45426;44.726;10.390;2023-12-22T10:59:35;1.65;;;0.43;;
59607;SDS011;45426;44.726;10.390;2023-12-22T11:02:14;1.65;;;0.57;;
59607;SDS011;45426;44.726;10.390;2023-12-22T11:04:44;0.85;;;0.45;;
59607;SDS011;45426;44.726;10.390;2023-12-22T11:07:15;2.03;;;0.45;;
59607;SDS011;45426;44.726;10.390;2023-12-22T11:09:43;2.92;;;0.40;;
59607;SDS011;45426;44.726;10.390;2023-12-22T11:12:12;1.83;;;0.40;;
59607;SDS011;45426;44.726;10.390;2023-12-22T11:14:39;0.25;;;0.20;;
59607;SDS011;45426;44.726;10.390;2023-12-22T11:17:05;0.75;;;0.32;;
59607;SDS011;45426;44.726;10.390;2023-12-22T11:19:32;0.30;;;0.30;;
59607;SDS011;45426;44.726;10.390;2023-12-22T11:22:00;2.80;;;0.50;;
59607;SDS011;45426;44.726;10.390;2023-12-22T11:24:29;0.10;;;0.10;;
59607;SDS011;45426;44.726;10.390;2023-12-22T11:26:57;0.30;;;0.30;;
59607;SDS011;45426;44.726;10.390;2023-12-22T11:29:24;1.45;;;0.40;;
59607;SDS011;45426;44.726;10.390;2023-12-22T11:31:51;0.50;;;0.30;;
59607;SDS011;45426;44.726;10.390;2023-12-22T11:34:21;0.43;;;0.25;;
59607;SDS011;45426;44.726;10.390;2023-12-22T11:36:47;0.30;;;0.30;;
59607;SDS011;45426;44.726;10.390;2023-12-22T11:39:13;1.27;;;0.40;;
59607;SDS011;45426;44.726;10.390;2023-12-22T11:41:39;1.83;;;0.55;;
59607;SDS011;45426;44.726;10.390;2023-12-22T11:44:06;1.13;;;0.82;;
59607;SDS011;45426;44.726;10.390;2023-12-22T11:46:32;0.50;;;0.20;;
59607;SDS011;45426;44.726;10.390;2023-12-22T11:48:59;0.30;;;0.30;;
59607;SDS011;45426;44.726;10.390;2023-12-22T11:51:24;0.60;;;0.30;;
59607;SDS011;45426;44.726;10.390;2023-12-22T11:53:57;0.82;;;0.68;;
59607;SDS011;45426;44.726;10.390;2023-12-22T11:56:22;0.90;;;0.52;;
59607;SDS011;45426;44.726;10.390;2023-12-22T11:58:51;0.47;;;0.47;;
59607;SDS011;45426;44.726;10.390;2023-12-22T12:01:23;1.80;;;0.45;;
59607;SDS011;45426;44.726;10.390;2023-12-22T12:03:50;0.45;;;0.35;;
59607;SDS011;45426;44.726;10.390;2023-12-22T12:08:51;0.40;;;0.40;;
59607;SDS011;45426;44.726;10.390;2023-12-22T12:11:18;1.48;;;0.38;;
59607;SDS011;45426;44.726;10.390;2023-12-22T12:13:47;0.77;;;0.30;;
59607;SDS011;45426;44.726;10.390;2023-12-22T12:16:14;0.40;;;0.38;;
59607;SDS011;45426;44.726;10.390;2023-12-22T12:18:41;0.40;;;0.40;;
59607;SDS011;45426;44.726;10.390;2023-12-22T12:21:07;1.45;;;0.50;;
59607;SDS011;45426;44.726;10.390;2023-12-22T12:23:34;1.10;;;0.30;;
59607;SDS011;45426;44.726;10.390;2023-12-22T12:26:00;0.17;;;0.17;;
59607;SDS011;45426;44.726;10.390;2023-12-22T12:28:26;1.45;;;0.40;;
59607;SDS011;45426;44.726;10.390;2023-12-22T12:30:57;1.95;;;0.30;;
59607;SDS011;45426;44.726;10.390;2023-12-22T12:33:27;0.90;;;0.32;;
59607;SDS011;45426;44.726;10.390;2023-12-22T12:35:56;0.68;;;0.43;;
59607;SDS011;45426;44.726;10.390;2023-12-22T12:38:27;1.33;;;0.50;;
59607;SDS011;45426;44.726;10.390;2023-12-22T12:41:14;0.75;;;0.60;;
59607;SDS011;45426;44.726;10.390;2023-12-22T12:43:41;2.13;;;0.60;;
59607;SDS011;45426;44.726;10.390;2023-12-22T12:46:10;0.85;;;0.57;;
59607;SDS011;45426;44.726;10.390;2023-12-22T12:48:35;0.57;;;0.50;;
59607;SDS011;45426;44.726;10.390;2023-12-22T12:51:04;1.92;;;0.70;;
59607;SDS011;45426;44.726;10.390;2023-12-22T12:53:31;0.65;;;0.50;;
59607;SDS011;45426;44.726;10.390;2023-12-22T12:55:58;1.40;;;0.60;;
59607;SDS011;45426;44.726;10.390;2023-12-22T12:58:32;1.80;;;0.30;;
59607;SDS011;45426;44.726;10.390;2023-12-22T13:01:08;3.58;;;0.50;;
59607;SDS011;45426;44.726;10.390;2023-12-22T13:03:55;0.30;;;0.30;;
59607;SDS011;45426;44.726;10.390;2023-12-22T13:06:22;0.52;;;0.50;;
59607;SDS011;45426;44.726;10.390;2023-12-22T13:08:48;0.93;;;0.50;;
59607;SDS011;45426;44.726;10.390;2023-12-22T13:11:15;0.57;;;0.30;;
59607;SDS011;45426;44.726;10.390;2023-12-22T13:13:41;1.55;;;0.40;;
59607;SDS011;45426;44.726;10.390;2023-12-22T13:16:07;0.25;;;0.25;;
59607;SDS011;45426;44.726;10.390;2023-12-22T13:18:34;0.85;;;0.40;;
59607;SDS011;45426;44.726;10.390;2023-12-22T13:21:00;1.00;;;0.32;;
59607;SDS011;45426;44.726;10.390;2023-12-22T13:23:26;0.93;;;0.43;;
59607;SDS011;45426;44.726;10.390;2023-12-22T13:25:52;0.85;;;0.30;;
59607;SDS011;45426;44.726;10.390;2023-12-22T13:28:24;0.93;;;0.38;;
59607;SDS011;45426;44.726;10.390;2023-12-22T13:30:51;0.98;;;0.40;;
59607;SDS011;45426;44.726;10.390;2023-12-22T13:33:16;0.52;;;0.40;;
59607;SDS011;45426;44.726;10.390;2023-12-22T13:35:42;0.50;;;0.40;;
59607;SDS011;45426;44.726;10.390;2023-12-22T13:38:07;0.40;;;0.40;;
59607;SDS011;45426;44.726;10.390;2023-12-22T13:40:34;0.98;;;0.40;;
59607;SDS011;45426;44.726;10.390;2023-12-22T13:43:00;0.30;;;0.30;;
59607;SDS011;45426;44.726;10.390;2023-12-22T13:45:29;0.38;;;0.30;;
59607;SDS011;45426;44.726;10.390;2023-12-22T13:47:56;0.88;;;0.30;;
59607;SDS011;45426;44.726;10.390;2023-12-22T13:50:22;1.05;;;0.30;;
59607;SDS011;45426;44.726;10.390;2023-12-22T13:52:48;1.02;;;0.40;;
59607;SDS011;45426;44.726;10.390;2023-12-22T13:55:16;0.30;;;0.30;;
59607;SDS011;45426;44.726;10.390;2023-12-22T13:57:43;1.45;;;0.50;;
59607;SDS011;45426;44.726;10.390;2023-12-22T14:02:47;0.40;;;0.40;;
59607;SDS011;45426;44.726;10.390;2023-12-22T14:05:19;0.60;;;0.20;;
59607;SDS011;45426;44.726;10.390;2023-12-22T14:07:44;0.35;;;0.30;;
59607;SDS011;45426;44.726;10.390;2023-12-22T14:10:10;1.45;;;0.20;;
59607;SDS011;45426;44.726;10.390;2023-12-22T14:12:40;1.77;;;0.50;;
59607;SDS011;45426;44.726;10.390;2023-12-22T14:15:09;1.30;;;0.63;;
59607;SDS011;45426;44.726;10.390;2023-12-22T14:17:36;1.73;;;0.77;;
59607;SDS011;45426;44.726;10.390;2023-12-22T14:20:02;0.70;;;0.70;;
59607;SDS011;45426;44.726;10.390;2023-12-22T14:22:29;0.93;;;0.68;;
59607;SDS011;45426;44.726;10.390;2023-12-22T14:24:55;0.75;;;0.60;;
59607;SDS011;45426;44.726;10.390;2023-12-22T14:27:22;1.55;;;0.40;;
59607;SDS011;45426;44.726;10.390;2023-12-22T14:29:48;0.38;;;0.30;;
59607;SDS011;45426;44.726;10.390;2023-12-22T14:32:13;0.50;;;0.40;;
59607;SDS011;45426;44.726;10.390;2023-12-22T14:34:44;3.10;;;0.50;;
59607;SDS011;45426;44.726;10.390;2023-12-22T14:37:10;0.43;;;0.43;;